Cedarville, Ohio
Current Conditions -  °F | °C
As of 3:56 PM on Wednesday 26 Nov 2014 (Local Time) from KSGH Reporting Station
Haze Haze  
Wind Chill: 29°   Ceiling: 2500
Heat Index: 34°   Visibility: 6mi
Dew Point: 27°   Wind: 6mph
Humidity: 76%   Direction: 210°SSW
Pressure: 30.06"   Gusts: NA
Location:  39.74°N, 83.81°W
Report Text: KSGH 262056Z AUTO 21005KT 6SM HZ FEW021 OVC025 01/M03 A3006 RMK AO2 55008 T00111027 SLP189 $
Loading
Personal Weather Stations






























Interactive Weather Map New forecast layout! Learn more

10-Day Weather Forecast

Advertisements
Track Severe Weather on mobile